Kennetcook, Canada
Current Conditions -  °F | °C
As of 12:00 PM on Friday 21 Nov 2014 (Local Time) from CYHZ Reporting Station
Scattered Clouds Scattered Clouds  
Wind Chill: -5°   Ceiling: Unl
Heat Index:   Visibility: 15mi
Dew Point: -8°   Wind: 20mph
Humidity: 52%   Direction: 310°NW
Pressure: 29.73"   Gusts: 30mph
Location:  45.18°N, 63.72°W
Report Text: CYHZ 211600Z 31017G26KT 15SM SCT038 01/M08 A2973 RMK CU4 SLP072
Loading
Personal Weather Stations






























Interactive Weather Map New forecast layout! Learn more

10-Day Weather Forecast

Advertisements
Track Severe Weather on mobile